createdAt,value
2023-08-08T00:00:30.582Z,15.29
2023-08-08T00:02:57.316Z,15.31
2023-08-08T00:05:24.180Z,15.32
2023-08-08T00:07:50.904Z,15.33
2023-08-08T00:10:17.662Z,15.15
2023-08-08T00:12:44.368Z,15.17
2023-08-08T00:15:11.065Z,15.17
2023-08-08T00:17:37.811Z,15.13
2023-08-08T00:20:05.130Z,15.13
2023-08-08T00:22:31.970Z,15.09
2023-08-08T00:24:59.242Z,15.09
2023-08-08T00:27:26.219Z,15.03
2023-08-08T00:29:54.393Z,15.02
2023-08-08T00:32:21.103Z,14.95
2023-08-08T00:34:47.723Z,14.97
2023-08-08T00:37:14.332Z,15.03
2023-08-08T00:39:43.663Z,15.01
2023-08-08T00:42:10.261Z,15.04
2023-08-08T00:44:38.750Z,15.04
2023-08-08T00:47:05.606Z,15.06
2023-08-08T00:49:32.230Z,15.00
2023-08-08T00:51:59.059Z,15.04
2023-08-08T00:54:26.279Z,14.97
2023-08-08T00:56:52.973Z,15.03
2023-08-08T00:59:20.591Z,15.04
2023-08-08T01:01:47.306Z,15.10
2023-08-08T01:04:14.284Z,15.06
2023-08-08T01:06:55.928Z,15.03
2023-08-08T01:09:38.382Z,15.06
2023-08-08T01:12:07.078Z,15.04
2023-08-08T01:14:35.319Z,15.08
2023-08-08T01:17:03.056Z,15.03
2023-08-08T01:19:33.908Z,14.99
2023-08-08T01:22:06.667Z,14.95
2023-08-08T01:24:38.255Z,14.91
2023-08-08T01:27:06.905Z,14.86
2023-08-08T01:29:33.702Z,14.89
2023-08-08T01:32:00.547Z,14.91
2023-08-08T01:34:27.531Z,14.88
2023-08-08T01:36:58.860Z,14.90
2023-08-08T01:39:31.653Z,14.87
2023-08-08T01:42:01.493Z,14.92
2023-08-08T01:44:30.320Z,14.86
2023-08-08T01:46:57.120Z,14.89
2023-08-08T01:49:23.765Z,14.94
2023-08-08T01:51:51.817Z,14.94
2023-08-08T01:54:18.562Z,14.87
2023-08-08T01:56:45.382Z,14.92
2023-08-08T01:59:13.672Z,14.93
2023-08-08T02:01:42.397Z,14.95
2023-08-08T02:04:09.076Z,14.86
2023-08-08T02:06:35.768Z,14.82
2023-08-08T02:09:02.501Z,14.79
2023-08-08T02:11:29.167Z,14.78
2023-08-08T02:13:55.825Z,14.76
2023-08-08T02:16:22.493Z,14.73
2023-08-08T02:18:49.155Z,14.79
2023-08-08T02:21:16.279Z,14.81
2023-08-08T02:23:42.942Z,14.77
2023-08-08T02:26:09.561Z,14.76
2023-08-08T02:28:36.468Z,14.79
2023-08-08T02:31:03.108Z,14.77
2023-08-08T02:33:30.081Z,14.78
2023-08-08T02:35:57.402Z,14.80
2023-08-08T02:38:24.035Z,14.77
2023-08-08T02:40:50.761Z,14.81
2023-08-08T02:43:17.897Z,14.72
2023-08-08T02:45:44.561Z,14.84
2023-08-08T02:48:13.445Z,14.81
2023-08-08T02:50:40.055Z,14.84
2023-08-08T02:53:07.868Z,14.84
2023-08-08T02:55:34.553Z,14.83
2023-08-08T02:58:03.501Z,14.84
2023-08-08T03:00:30.135Z,14.75
2023-08-08T03:02:56.842Z,14.77
2023-08-08T03:05:23.521Z,14.69
2023-08-08T03:07:50.139Z,14.66
2023-08-08T03:10:16.910Z,14.62
2023-08-08T03:12:43.523Z,14.70
2023-08-08T03:15:11.778Z,14.73
2023-08-08T03:17:38.882Z,14.71
2023-08-08T03:20:07.708Z,14.80
2023-08-08T03:22:34.803Z,14.66
2023-08-08T03:25:01.493Z,14.65
2023-08-08T03:27:28.117Z,14.65
2023-08-08T03:29:54.709Z,14.65
2023-08-08T03:32:21.400Z,14.64
2023-08-08T03:34:48.046Z,14.57
2023-08-08T03:37:14.838Z,14.45
2023-08-08T03:39:41.578Z,14.45
2023-08-08T03:42:08.643Z,14.44
2023-08-08T03:44:35.310Z,14.35
2023-08-08T03:47:13.752Z,14.47
2023-08-08T03:49:45.658Z,14.37
2023-08-08T03:52:12.650Z,14.30
2023-08-08T03:54:39.668Z,14.35
2023-08-08T03:57:06.365Z,14.35
2023-08-08T03:59:33.047Z,14.32
2023-08-08T04:01:59.876Z,14.33
2023-08-08T04:04:26.913Z,14.35
2023-08-08T04:06:53.679Z,14.27
2023-08-08T04:09:20.359Z,14.22
2023-08-08T04:11:47.012Z,14.34
2023-08-08T04:14:13.614Z,14.33
2023-08-08T04:16:40.865Z,14.31
2023-08-08T04:19:07.678Z,14.25
2023-08-08T04:21:34.357Z,14.30
2023-08-08T04:24:01.234Z,14.34
2023-08-08T04:26:28.021Z,14.36
2023-08-08T04:28:54.787Z,14.48
2023-08-08T04:31:21.518Z,14.55
2023-08-08T04:33:48.237Z,14.54
2023-08-08T04:36:14.894Z,14.63
2023-08-08T04:38:41.511Z,14.57
2023-08-08T04:41:08.141Z,14.64
2023-08-08T04:43:34.778Z,14.61
2023-08-08T04:46:01.440Z,14.69
2023-08-08T04:48:28.030Z,14.70
2023-08-08T04:50:54.616Z,14.72
2023-08-08T04:53:21.207Z,14.75
2023-08-08T04:55:47.810Z,14.71
2023-08-08T04:58:14.470Z,14.70
2023-08-08T05:00:41.156Z,14.75
2023-08-08T05:03:07.877Z,14.77
2023-08-08T05:05:36.794Z,14.85
2023-08-08T05:08:04.048Z,14.81
2023-08-08T05:10:32.349Z,14.85
2023-08-08T05:12:59.188Z,14.80
2023-08-08T05:15:25.776Z,14.85
2023-08-08T05:17:52.602Z,14.91
2023-08-08T05:20:19.257Z,14.86
2023-08-08T05:22:45.871Z,14.96
2023-08-08T05:25:12.507Z,14.92
2023-08-08T05:27:39.125Z,14.88
2023-08-08T05:30:06.396Z,14.85
2023-08-08T05:32:33.094Z,14.86
2023-08-08T05:35:01.606Z,14.97
2023-08-08T05:37:28.378Z,14.97
2023-08-08T05:39:55.135Z,14.99
2023-08-08T05:42:21.838Z,14.98
2023-08-08T05:44:48.501Z,14.97
2023-08-08T05:47:15.176Z,15.02
2023-08-08T05:49:44.497Z,14.96
2023-08-08T05:52:11.513Z,15.06
2023-08-08T05:54:38.417Z,15.04
2023-08-08T05:57:05.739Z,15.06
2023-08-08T05:59:32.381Z,15.05
2023-08-08T06:02:00.475Z,15.17
2023-08-08T06:04:27.521Z,15.18
2023-08-08T06:06:54.175Z,15.15
2023-08-08T06:09:20.970Z,15.22
2023-08-08T06:11:47.670Z,15.23
2023-08-08T06:14:14.344Z,15.23
2023-08-08T06:16:41.210Z,15.27
2023-08-08T06:19:07.998Z,15.25
2023-08-08T06:21:34.626Z,15.19
2023-08-08T06:24:01.255Z,15.32
2023-08-08T06:26:27.998Z,15.33
2023-08-08T06:28:54.623Z,15.25
2023-08-08T06:31:21.284Z,15.38
2023-08-08T06:33:48.833Z,15.51
2023-08-08T06:36:15.603Z,15.50
2023-08-08T06:38:42.362Z,15.57
2023-08-08T06:41:09.648Z,15.56
2023-08-08T06:43:36.252Z,15.51
2023-08-08T06:46:03.209Z,15.44
2023-08-08T06:48:29.920Z,15.57
2023-08-08T06:50:56.611Z,15.51
2023-08-08T06:53:24.133Z,15.49
2023-08-08T06:55:50.753Z,15.69
2023-08-08T06:58:17.380Z,15.78
2023-08-08T07:00:43.996Z,15.89
2023-08-08T07:03:11.377Z,15.96
2023-08-08T07:05:39.468Z,16.05
2023-08-08T07:08:06.374Z,16.05
2023-08-08T07:10:32.995Z,16.05
2023-08-08T07:12:59.598Z,16.12
2023-08-08T07:15:26.424Z,16.27
2023-08-08T07:17:53.282Z,16.26
2023-08-08T07:20:23.204Z,16.25
2023-08-08T07:22:49.842Z,16.28
2023-08-08T07:25:16.470Z,16.28
2023-08-08T07:27:43.171Z,16.38
2023-08-08T07:30:10.267Z,16.57
2023-08-08T07:32:37.033Z,16.58
2023-08-08T07:35:07.027Z,16.74
2023-08-08T07:37:34.574Z,16.83
2023-08-08T07:40:01.707Z,16.87
2023-08-08T07:42:28.456Z,16.99
2023-08-08T07:44:55.507Z,16.95
2023-08-08T07:47:22.197Z,16.95
2023-08-08T07:49:48.832Z,16.76
2023-08-08T07:52:15.464Z,16.79
2023-08-08T07:54:42.073Z,16.71
2023-08-08T07:57:08.751Z,16.69
2023-08-08T07:59:35.364Z,16.70
2023-08-08T08:02:02.404Z,16.77
2023-08-08T08:04:29.410Z,16.81
2023-08-08T08:06:56.020Z,16.80
2023-08-08T08:09:22.693Z,16.81
2023-08-08T08:11:49.345Z,16.86
2023-08-08T08:14:15.958Z,16.96
2023-08-08T08:16:42.710Z,16.98
2023-08-08T08:19:09.409Z,16.84
2023-08-08T08:21:36.146Z,16.89
2023-08-08T08:24:03.416Z,16.89
2023-08-08T08:26:30.077Z,16.92
2023-08-08T08:28:56.824Z,16.95
2023-08-08T08:31:23.526Z,16.98
2023-08-08T08:33:50.273Z,17.01
2023-08-08T08:36:17.066Z,17.06
2023-08-08T08:38:43.688Z,16.91
2023-08-08T08:41:13.933Z,16.94
2023-08-08T08:43:40.954Z,16.93
2023-08-08T08:46:10.426Z,17.02
2023-08-08T08:48:37.079Z,17.07
2023-08-08T08:51:04.301Z,17.09
2023-08-08T08:53:31.483Z,17.14
2023-08-08T08:55:58.692Z,17.18
2023-08-08T08:58:26.134Z,17.40
2023-08-08T09:00:53.617Z,17.39
2023-08-08T09:03:21.164Z,17.46
2023-08-08T09:05:49.496Z,17.53
2023-08-08T09:08:16.525Z,17.54
2023-08-08T09:10:43.306Z,17.64
2023-08-08T09:13:10.142Z,17.61
2023-08-08T09:15:36.921Z,17.67
2023-08-08T09:18:04.035Z,17.62
2023-08-08T09:20:31.815Z,17.53
2023-08-08T09:22:58.478Z,17.48
2023-08-08T09:25:27.013Z,17.38
2023-08-08T09:27:54.618Z,17.42
2023-08-08T09:30:22.026Z,17.40
2023-08-08T09:32:49.272Z,17.32
2023-08-08T09:35:16.521Z,17.38
2023-08-08T09:37:43.397Z,17.40
2023-08-08T09:40:12.899Z,17.44
2023-08-08T09:42:41.458Z,17.48
2023-08-08T09:45:09.966Z,17.46
2023-08-08T09:47:37.597Z,17.46
2023-08-08T09:50:08.040Z,17.48
2023-08-08T09:52:36.249Z,17.56
2023-08-08T09:55:04.299Z,17.59
2023-08-08T09:57:31.436Z,17.47
2023-08-08T09:59:58.759Z,17.45
2023-08-08T10:02:26.123Z,17.41
2023-08-08T10:04:53.893Z,17.53
2023-08-08T10:07:20.662Z,17.69
2023-08-08T10:09:47.391Z,17.74
2023-08-08T10:12:14.244Z,17.70
2023-08-08T10:14:43.885Z,17.84
2023-08-08T10:17:15.488Z,17.87
2023-08-08T10:19:51.544Z,17.89
2023-08-08T10:22:22.325Z,17.92
2023-08-08T10:24:50.121Z,17.94
2023-08-08T10:27:38.214Z,18.14
2023-08-08T10:30:08.422Z,18.08
2023-08-08T10:32:45.397Z,18.07
2023-08-08T10:35:13.131Z,18.06
2023-08-08T10:37:41.191Z,18.12
2023-08-08T10:40:09.157Z,18.09
2023-08-08T10:42:44.267Z,18.16
2023-08-08T10:45:15.913Z,18.32
2023-08-08T10:47:43.594Z,18.22
2023-08-08T10:50:15.732Z,18.20
2023-08-08T10:52:54.359Z,18.09
2023-08-08T10:55:27.299Z,18.04
2023-08-08T10:58:06.154Z,17.97
2023-08-08T11:00:34.423Z,17.83
2023-08-08T11:03:01.934Z,17.75
2023-08-08T11:05:33.051Z,17.52
2023-08-08T11:08:01.342Z,17.43
2023-08-08T11:10:34.084Z,17.42
2023-08-08T11:13:05.608Z,17.63
2023-08-08T11:15:37.507Z,17.85
2023-08-08T11:18:05.334Z,18.04
2023-08-08T11:20:34.242Z,18.23
2023-08-08T11:23:01.722Z,18.35
2023-08-08T11:25:31.505Z,18.40
2023-08-08T11:27:59.633Z,18.35
2023-08-08T11:30:30.313Z,18.47
2023-08-08T11:35:26.975Z,18.42
2023-08-08T11:37:55.165Z,18.45
2023-08-08T11:40:23.917Z,18.42
2023-08-08T11:42:52.462Z,18.51
2023-08-08T11:45:20.096Z,18.44
2023-08-08T11:47:51.678Z,18.47
2023-08-08T11:50:21.017Z,18.58
2023-08-08T11:52:47.979Z,18.74
2023-08-08T11:55:14.928Z,18.71
2023-08-08T11:57:42.058Z,18.74
2023-08-08T12:00:10.391Z,18.60
2023-08-08T12:02:37.098Z,18.62
2023-08-08T12:05:23.641Z,18.61
2023-08-08T12:07:51.433Z,18.57
2023-08-08T12:10:23.575Z,18.58
2023-08-08T12:12:59.011Z,18.62
2023-08-08T12:15:30.430Z,18.76
2023-08-08T12:17:57.314Z,18.89
2023-08-08T12:20:23.974Z,18.90
2023-08-08T12:22:50.618Z,18.99
2023-08-08T12:25:17.314Z,19.00
2023-08-08T12:27:43.928Z,18.94
2023-08-08T12:30:10.629Z,18.78
2023-08-08T12:32:37.295Z,18.58
2023-08-08T12:35:04.261Z,18.55
2023-08-08T12:37:30.929Z,18.58
2023-08-08T12:39:58.235Z,18.72
2023-08-08T12:42:24.922Z,18.83
2023-08-08T12:44:54.158Z,18.79
2023-08-08T12:47:22.280Z,18.80
2023-08-08T12:49:49.159Z,18.80
2023-08-08T12:52:16.016Z,18.84
2023-08-08T12:54:42.688Z,18.97
2023-08-08T12:57:10.165Z,19.13
2023-08-08T12:59:36.998Z,19.31
2023-08-08T13:02:04.478Z,19.35
2023-08-08T13:04:31.696Z,19.29
2023-08-08T13:06:58.466Z,19.42
2023-08-08T13:09:25.220Z,19.59
2023-08-08T13:11:51.883Z,19.57
2023-08-08T13:14:18.540Z,19.55
2023-08-08T13:16:45.267Z,19.62
2023-08-08T13:19:12.471Z,19.50
2023-08-08T13:21:39.154Z,19.45
2023-08-08T13:24:07.203Z,19.34
2023-08-08T13:26:33.849Z,19.27
2023-08-08T13:29:00.588Z,19.26
2023-08-08T13:31:27.195Z,19.25
2023-08-08T13:33:53.801Z,19.32
2023-08-08T13:36:20.395Z,19.37
2023-08-08T13:38:47.035Z,19.32
2023-08-08T13:41:13.679Z,19.35
2023-08-08T13:43:40.367Z,19.27
2023-08-08T13:46:09.196Z,19.31
2023-08-08T13:48:36.141Z,19.40
2023-08-08T13:51:03.903Z,19.36
2023-08-08T13:53:30.625Z,19.31
2023-08-08T13:55:57.450Z,19.42
2023-08-08T13:58:24.184Z,19.53
2023-08-08T14:00:51.619Z,19.53
2023-08-08T14:03:18.993Z,19.51
2023-08-08T14:05:45.799Z,19.38
2023-08-08T14:08:12.423Z,19.27
2023-08-08T14:10:39.097Z,19.28
2023-08-08T14:13:05.828Z,19.25
2023-08-08T14:15:34.650Z,19.20
2023-08-08T14:18:01.394Z,19.14
2023-08-08T14:20:28.497Z,19.19
2023-08-08T14:22:55.199Z,19.11
2023-08-08T14:25:22.214Z,19.13
2023-08-08T14:27:49.023Z,19.24
2023-08-08T14:30:15.728Z,19.40
2023-08-08T14:32:42.441Z,19.47
2023-08-08T14:35:09.987Z,19.55
2023-08-08T14:37:37.190Z,19.54
2023-08-08T14:40:04.174Z,19.62
2023-08-08T14:42:30.770Z,19.67
2023-08-08T14:44:57.467Z,19.63
2023-08-08T14:47:24.352Z,19.62
2023-08-08T14:49:52.251Z,19.59
2023-08-08T14:52:18.869Z,19.58
2023-08-08T14:54:45.812Z,19.66
2023-08-08T14:57:12.426Z,19.63
2023-08-08T14:59:39.130Z,19.65
2023-08-08T15:02:05.874Z,19.63
2023-08-08T15:04:34.072Z,19.64
2023-08-08T15:07:00.870Z,19.78
2023-08-08T15:09:28.194Z,19.81
2023-08-08T15:11:54.867Z,19.82
2023-08-08T15:14:21.531Z,19.79
2023-08-08T15:16:54.597Z,19.90
2023-08-08T15:19:21.512Z,20.05
2023-08-08T15:21:48.183Z,19.95
2023-08-08T15:24:14.879Z,19.84
2023-08-08T15:26:41.544Z,19.87
2023-08-08T15:29:08.325Z,19.90
2023-08-08T15:31:35.086Z,19.89
2023-08-08T15:34:01.896Z,19.80
2023-08-08T15:36:28.631Z,19.67
2023-08-08T15:38:55.434Z,19.69
2023-08-08T15:41:22.151Z,19.76
2023-08-08T15:43:48.795Z,19.76
2023-08-08T15:46:15.654Z,19.73
2023-08-08T15:48:42.297Z,19.80
2023-08-08T15:51:08.968Z,19.82
2023-08-08T15:53:35.602Z,19.77
2023-08-08T15:56:02.802Z,19.72
2023-08-08T15:58:29.441Z,19.75
2023-08-08T16:00:56.928Z,19.71
2023-08-08T16:03:23.726Z,19.54
2023-08-08T16:05:50.446Z,19.54
2023-08-08T16:08:18.790Z,19.46
2023-08-08T16:10:45.991Z,19.44
2023-08-08T16:13:12.647Z,19.36
2023-08-08T16:15:39.288Z,19.31
2023-08-08T16:18:06.687Z,19.30
2023-08-08T16:20:33.362Z,19.27
2023-08-08T16:23:02.870Z,19.31
2023-08-08T16:25:29.569Z,19.37
2023-08-08T16:27:56.160Z,19.39
2023-08-08T16:30:22.828Z,19.36
2023-08-08T16:32:49.479Z,19.44
2023-08-08T16:35:16.113Z,19.49
2023-08-08T16:37:42.756Z,19.49
2023-08-08T16:40:09.617Z,19.57
2023-08-08T16:42:36.337Z,19.59
2023-08-08T16:45:03.713Z,19.64
2023-08-08T16:47:30.324Z,19.57
2023-08-08T16:49:56.903Z,19.68
2023-08-08T16:52:23.605Z,19.56
2023-08-08T16:54:51.471Z,19.55
2023-08-08T16:57:19.648Z,19.42
2023-08-08T16:59:46.234Z,19.34
2023-08-08T17:02:12.844Z,19.24
2023-08-08T17:04:40.543Z,19.16
2023-08-08T17:07:07.199Z,19.13
2023-08-08T17:09:34.032Z,19.11
2023-08-08T17:12:00.726Z,19.10
2023-08-08T17:14:27.379Z,19.02
2023-08-08T17:16:54.737Z,18.97
2023-08-08T17:19:21.568Z,18.87
2023-08-08T17:21:48.216Z,18.79
2023-08-08T17:24:22.492Z,18.75
2023-08-08T17:26:52.221Z,18.69
2023-08-08T17:29:18.898Z,18.62
2023-08-08T17:31:45.680Z,18.58
2023-08-08T17:34:12.342Z,18.58
2023-08-08T17:36:38.975Z,18.47
2023-08-08T17:39:05.803Z,18.47
2023-08-08T17:41:32.464Z,18.42
2023-08-08T17:43:59.140Z,18.40
2023-08-08T17:46:25.815Z,18.34
2023-08-08T17:48:53.715Z,18.27
2023-08-08T17:51:20.441Z,18.16
2023-08-08T17:53:48.392Z,18.12
2023-08-08T17:56:15.498Z,18.15
2023-08-08T17:58:45.741Z,18.11
2023-08-08T18:01:13.552Z,18.06
2023-08-08T18:03:41.113Z,18.06
2023-08-08T18:06:07.845Z,18.04
2023-08-08T18:08:34.670Z,18.03
2023-08-08T18:11:01.422Z,17.91
2023-08-08T18:13:28.139Z,17.87
2023-08-08T18:15:56.186Z,17.89
2023-08-08T18:18:24.632Z,17.77
2023-08-08T18:20:51.313Z,17.80
2023-08-08T18:23:18.423Z,17.84
2023-08-08T18:25:45.590Z,17.82
2023-08-08T18:28:12.668Z,17.80
2023-08-08T18:30:39.314Z,17.79
2023-08-08T18:33:05.995Z,17.80
2023-08-08T18:35:33.330Z,17.80
2023-08-08T18:38:00.006Z,17.65
2023-08-08T18:40:26.620Z,17.59
2023-08-08T18:42:53.286Z,17.64
2023-08-08T18:45:20.037Z,17.61
2023-08-08T18:47:46.709Z,17.49
2023-08-08T18:50:13.394Z,17.48
2023-08-08T18:52:40.066Z,17.48
2023-08-08T18:55:06.981Z,17.46
2023-08-08T18:57:35.053Z,17.43
2023-08-08T19:00:03.966Z,17.34
2023-08-08T19:02:30.645Z,17.37
2023-08-08T19:04:57.390Z,17.27
2023-08-08T19:07:24.172Z,17.18
2023-08-08T19:09:50.803Z,17.18
2023-08-08T19:12:17.455Z,17.18
2023-08-08T19:14:44.142Z,17.18
2023-08-08T19:17:10.783Z,17.20
2023-08-08T19:19:37.396Z,17.25
2023-08-08T19:22:04.029Z,17.27
2023-08-08T19:24:30.658Z,17.24
2023-08-08T19:26:57.301Z,17.26
2023-08-08T19:29:23.944Z,17.19
2023-08-08T19:31:50.559Z,17.24
2023-08-08T19:34:17.266Z,17.23
2023-08-08T19:36:43.994Z,17.09
2023-08-08T19:39:10.611Z,17.06
2023-08-08T19:41:37.218Z,17.03
2023-08-08T19:44:04.004Z,16.96
2023-08-08T19:46:30.651Z,16.85
2023-08-08T19:48:57.392Z,16.77
2023-08-08T19:51:24.177Z,16.73
2023-08-08T19:53:50.809Z,16.61
2023-08-08T19:56:17.437Z,16.59
2023-08-08T19:58:44.093Z,16.52
2023-08-08T20:01:11.296Z,16.53
2023-08-08T20:03:39.022Z,16.53
2023-08-08T20:06:05.692Z,16.53
2023-08-08T20:08:32.321Z,16.62
2023-08-08T20:10:59.086Z,16.67
2023-08-08T20:13:27.217Z,16.60
2023-08-08T20:15:54.640Z,16.50
2023-08-08T20:18:21.352Z,16.50
2023-08-08T20:20:48.018Z,16.53
2023-08-08T20:23:14.639Z,16.53
2023-08-08T20:25:41.387Z,16.55
2023-08-08T20:28:08.201Z,16.54
2023-08-08T20:30:36.219Z,16.51
2023-08-08T20:33:03.328Z,16.55
2023-08-08T20:35:30.041Z,16.56
2023-08-08T20:37:56.721Z,16.54
2023-08-08T20:40:23.687Z,16.49
2023-08-08T20:42:50.465Z,16.53
2023-08-08T20:45:17.281Z,16.43
2023-08-08T20:47:43.963Z,16.38
2023-08-08T20:50:11.010Z,16.50
2023-08-08T20:52:38.478Z,16.54
2023-08-08T20:55:06.077Z,16.39
2023-08-08T20:57:32.748Z,16.38
2023-08-08T20:59:59.801Z,16.36
2023-08-08T21:02:26.885Z,16.42
2023-08-08T21:04:53.665Z,16.29
2023-08-08T21:07:20.539Z,16.28
2023-08-08T21:09:47.634Z,16.32
2023-08-08T21:12:15.653Z,16.34
2023-08-08T21:14:42.799Z,16.41
2023-08-08T21:17:09.553Z,16.26
2023-08-08T21:19:36.454Z,16.27
2023-08-08T21:22:03.314Z,16.22
2023-08-08T21:24:30.940Z,16.06
2023-08-08T21:26:57.534Z,16.16
2023-08-08T21:29:24.165Z,16.19
2023-08-08T21:31:50.761Z,16.11
2023-08-08T21:34:17.389Z,16.15
2023-08-08T21:36:44.079Z,16.12
2023-08-08T21:39:10.740Z,16.20
2023-08-08T21:41:37.391Z,16.19
2023-08-08T21:44:04.301Z,16.21
2023-08-08T21:46:30.937Z,16.26
2023-08-08T21:48:58.962Z,16.15
2023-08-08T21:51:25.769Z,16.09
2023-08-08T21:53:52.424Z,16.07
2023-08-08T21:56:19.067Z,16.10
2023-08-08T21:58:45.717Z,16.12
2023-08-08T22:01:12.498Z,16.18
2023-08-08T22:03:39.223Z,16.18
2023-08-08T22:06:07.035Z,16.31
2023-08-08T22:08:33.698Z,16.28
2023-08-08T22:11:00.579Z,16.20
2023-08-08T22:13:28.453Z,16.20
2023-08-08T22:15:55.462Z,16.22
2023-08-08T22:18:22.386Z,16.25
2023-08-08T22:20:49.071Z,16.24
2023-08-08T22:23:20.468Z,16.18
2023-08-08T22:25:49.973Z,16.19
2023-08-08T22:28:17.057Z,16.07
2023-08-08T22:30:43.826Z,16.17
2023-08-08T22:33:10.608Z,16.22
2023-08-08T22:35:37.288Z,16.24
2023-08-08T22:38:04.236Z,16.10
2023-08-08T22:40:31.266Z,16.09
2023-08-08T22:42:57.929Z,16.01
2023-08-08T22:45:24.796Z,16.09
2023-08-08T22:47:51.520Z,15.98
2023-08-08T22:50:18.262Z,15.90
2023-08-08T22:52:45.081Z,16.03
2023-08-08T22:55:12.572Z,16.04
2023-08-08T22:57:39.363Z,16.00
2023-08-08T23:00:08.160Z,15.94
2023-08-08T23:02:35.352Z,15.85
2023-08-08T23:05:02.439Z,15.98
2023-08-08T23:07:29.186Z,16.00
2023-08-08T23:09:55.870Z,16.05
2023-08-08T23:12:22.551Z,16.12
2023-08-08T23:14:49.261Z,15.97
2023-08-08T23:17:15.999Z,16.05
2023-08-08T23:19:42.648Z,16.11
2023-08-08T23:22:09.363Z,16.16
2023-08-08T23:24:36.086Z,16.14
2023-08-08T23:27:03.263Z,16.13
2023-08-08T23:29:30.207Z,16.10
2023-08-08T23:31:56.890Z,16.12
2023-08-08T23:34:23.580Z,16.16
2023-08-08T23:36:50.293Z,16.12
2023-08-08T23:39:17.416Z,16.09
2023-08-08T23:41:45.128Z,16.07
2023-08-08T23:44:11.966Z,16.06
2023-08-08T23:46:38.714Z,16.09
2023-08-08T23:49:08.529Z,16.05
2023-08-08T23:51:37.210Z,16.11
2023-08-08T23:54:04.690Z,16.02
2023-08-08T23:56:31.392Z,16.04
2023-08-08T23:58:58.072Z,15.89
